sensor_id;sensor_type;location;lat;lon;timestamp;pressure;altitude;pressure_sealevel;temperature;humidity
42601;BME280;28229;48.856;9.088;2024-01-25T00:00:25;99130.72;;;8.57;86.43
42601;BME280;28229;48.856;9.088;2024-01-25T00:02:51;99116.97;;;8.55;87.02
42601;BME280;28229;48.856;9.088;2024-01-25T00:05:17;99111.41;;;8.50;87.44
42601;BME280;28229;48.856;9.088;2024-01-25T00:07:47;99109.09;;;8.55;87.14
42601;BME280;28229;48.856;9.088;2024-01-25T00:10:16;99113.69;;;8.53;87.35
42601;BME280;28229;48.856;9.088;2024-01-25T00:12:42;99107.19;;;8.49;87.67
42601;BME280;28229;48.856;9.088;2024-01-25T00:15:09;99107.19;;;8.49;87.65
42601;BME280;28229;48.856;9.088;2024-01-25T00:17:36;99115.34;;;8.54;87.39
42601;BME280;28229;48.856;9.088;2024-01-25T00:20:04;99105.38;;;8.49;87.86
42601;BME280;28229;48.856;9.088;2024-01-25T00:22:31;99098.13;;;8.51;87.88
42601;BME280;28229;48.856;9.088;2024-01-25T00:25:00;99103.69;;;8.56;87.64
42601;BME280;28229;48.856;9.088;2024-01-25T00:27:26;99100.88;;;8.58;87.75
42601;BME280;28229;48.856;9.088;2024-01-25T00:29:52;99112.91;;;8.52;88.26
42601;BME280;28229;48.856;9.088;2024-01-25T00:32:18;99103.34;;;8.60;88.43
42601;BME280;28229;48.856;9.088;2024-01-25T00:34:45;99105.78;;;8.61;88.42
42601;BME280;28229;48.856;9.088;2024-01-25T00:37:14;99096.44;;;8.58;88.58
42601;BME280;28229;48.856;9.088;2024-01-25T00:39:41;99101.34;;;8.62;88.78
42601;BME280;28229;48.856;9.088;2024-01-25T00:42:07;99100.53;;;8.61;88.98
42601;BME280;28229;48.856;9.088;2024-01-25T00:44:34;99098.25;;;8.58;89.44
42601;BME280;28229;48.856;9.088;2024-01-25T00:47:00;99092.28;;;8.64;89.50
42601;BME280;28229;48.856;9.088;2024-01-25T00:49:29;99100.00;;;8.66;89.63
42601;BME280;28229;48.856;9.088;2024-01-25T00:51:59;99099.19;;;8.65;89.69
42601;BME280;28229;48.856;9.088;2024-01-25T00:54:26;99093.44;;;8.70;89.62
42601;BME280;28229;48.856;9.088;2024-01-25T00:56:52;99092.97;;;8.66;90.04
42601;BME280;28229;48.856;9.088;2024-01-25T00:59:19;99098.31;;;8.73;89.90
42601;BME280;28229;48.856;9.088;2024-01-25T01:01:48;99094.91;;;8.64;90.42
42601;BME280;28229;48.856;9.088;2024-01-25T01:04:18;99097.06;;;8.61;90.68
42601;BME280;28229;48.856;9.088;2024-01-25T01:06:45;99099.53;;;8.62;90.97
42601;BME280;28229;48.856;9.088;2024-01-25T01:09:11;99093.78;;;8.67;90.68
42601;BME280;28229;48.856;9.088;2024-01-25T01:11:37;99093.44;;;8.70;90.65
42601;BME280;28229;48.856;9.088;2024-01-25T01:14:03;99084.81;;;8.61;91.31
42601;BME280;28229;48.856;9.088;2024-01-25T01:16:29;99086.38;;;8.70;90.80
42601;BME280;28229;48.856;9.088;2024-01-25T01:18:58;99086.06;;;8.65;91.27
42601;BME280;28229;48.856;9.088;2024-01-25T01:21:34;99085.09;;;8.66;90.96
42601;BME280;28229;48.856;9.088;2024-01-25T01:24:02;99080.81;;;8.65;90.92
42601;BME280;28229;48.856;9.088;2024-01-25T01:26:28;99075.56;;;8.65;90.53
42601;BME280;28229;48.856;9.088;2024-01-25T01:28:54;99084.44;;;8.64;90.55
42601;BME280;28229;48.856;9.088;2024-01-25T01:31:20;99077.22;;;8.66;90.53
42601;BME280;28229;48.856;9.088;2024-01-25T01:33:46;99084.09;;;8.67;89.62
42601;BME280;28229;48.856;9.088;2024-01-25T01:36:13;99084.44;;;8.64;89.61
42601;BME280;28229;48.856;9.088;2024-01-25T01:38:40;99085.72;;;8.68;89.28
42601;BME280;28229;48.856;9.088;2024-01-25T01:41:06;99088.97;;;8.70;89.05
42601;BME280;28229;48.856;9.088;2024-01-25T01:43:32;99095.84;;;8.71;89.05
42601;BME280;28229;48.856;9.088;2024-01-25T01:46:04;99092.06;;;8.74;88.84
42601;BME280;28229;48.856;9.088;2024-01-25T01:48:31;99088.97;;;8.70;89.31
42601;BME280;28229;48.856;9.088;2024-01-25T01:50:58;99079.84;;;8.66;89.36
42601;BME280;28229;48.856;9.088;2024-01-25T01:53:24;99086.88;;;8.66;89.40
42601;BME280;28229;48.856;9.088;2024-01-25T01:55:51;99086.59;;;8.61;89.81
42601;BME280;28229;48.856;9.088;2024-01-25T01:58:18;99093.78;;;8.67;89.23
42601;BME280;28229;48.856;9.088;2024-01-25T02:00:48;99086.41;;;8.62;89.05
42601;BME280;28229;48.856;9.088;2024-01-25T02:03:14;99093.31;;;8.63;89.13
42601;BME280;28229;48.856;9.088;2024-01-25T02:05:41;99076.94;;;8.61;88.80
42601;BME280;28229;48.856;9.088;2024-01-25T02:08:08;99072.50;;;8.62;88.47
42601;BME280;28229;48.856;9.088;2024-01-25T02:10:35;99073.00;;;8.57;88.65
42601;BME280;28229;48.856;9.088;2024-01-25T02:13:01;99063.34;;;8.57;88.51
42601;BME280;28229;48.856;9.088;2024-01-25T02:15:27;99074.53;;;8.51;89.12
42601;BME280;28229;48.856;9.088;2024-01-25T02:17:54;99076.25;;;8.59;88.29
42601;BME280;28229;48.856;9.088;2024-01-25T02:20:22;99071.56;;;8.54;88.47
42601;BME280;28229;48.856;9.088;2024-01-25T02:22:48;99073.38;;;8.54;88.78
42601;BME280;28229;48.856;9.088;2024-01-25T02:25:14;99069.41;;;8.58;87.97
42601;BME280;28229;48.856;9.088;2024-01-25T02:27:40;99068.47;;;8.51;87.95
42601;BME280;28229;48.856;9.088;2024-01-25T02:30:07;99072.09;;;8.50;87.50
42601;BME280;28229;48.856;9.088;2024-01-25T02:32:33;99064.22;;;8.50;87.15
42601;BME280;28229;48.856;9.088;2024-01-25T02:35:00;99077.63;;;8.55;86.87
42601;BME280;28229;48.856;9.088;2024-01-25T02:37:26;99079.91;;;8.58;87.13
42601;BME280;28229;48.856;9.088;2024-01-25T02:39:52;99074.19;;;8.54;87.90
42601;BME280;28229;48.856;9.088;2024-01-25T02:42:19;99073.72;;;8.51;87.90
42601;BME280;28229;48.856;9.088;2024-01-25T02:44:45;99072.72;;;8.52;88.01
42601;BME280;28229;48.856;9.088;2024-01-25T02:47:11;99069.47;;;8.50;88.43
42601;BME280;28229;48.856;9.088;2024-01-25T02:49:37;99071.28;;;8.49;88.23
42601;BME280;28229;48.856;9.088;2024-01-25T02:52:03;99078.03;;;8.44;88.60
42601;BME280;28229;48.856;9.088;2024-01-25T02:54:30;99079.66;;;8.45;89.04
42601;BME280;28229;48.856;9.088;2024-01-25T02:56:56;99074.41;;;8.45;89.17
42601;BME280;28229;48.856;9.088;2024-01-25T02:59:22;99075.59;;;8.42;89.12
42601;BME280;28229;48.856;9.088;2024-01-25T03:01:48;99074.41;;;8.45;89.25
42601;BME280;28229;48.856;9.088;2024-01-25T03:04:14;99071.16;;;8.43;89.39
42601;BME280;28229;48.856;9.088;2024-01-25T03:06:40;99073.78;;;8.43;89.47
42601;BME280;28229;48.856;9.088;2024-01-25T03:09:07;99077.25;;;8.35;89.91
42601;BME280;28229;48.856;9.088;2024-01-25T03:11:33;99079.53;;;8.38;89.54
42601;BME280;28229;48.856;9.088;2024-01-25T03:14:00;99087.22;;;8.39;89.69
42601;BME280;28229;48.856;9.088;2024-01-25T03:16:26;99082.31;;;8.36;89.76
42601;BME280;28229;48.856;9.088;2024-01-25T03:18:52;99089.56;;;8.34;89.67
42601;BME280;28229;48.856;9.088;2024-01-25T03:21:18;99091.16;;;8.35;89.33
42601;BME280;28229;48.856;9.088;2024-01-25T03:23:44;99092.00;;;8.36;89.36
42601;BME280;28229;48.856;9.088;2024-01-25T03:26:10;99096.09;;;8.30;89.28
42601;BME280;28229;48.856;9.088;2024-01-25T03:28:36;99099.09;;;8.27;89.49
42601;BME280;28229;48.856;9.088;2024-01-25T03:31:04;99104.81;;;8.31;89.21
42601;BME280;28229;48.856;9.088;2024-01-25T03:33:30;99108.75;;;8.27;89.58
42601;BME280;28229;48.856;9.088;2024-01-25T03:36:05;99118.75;;;8.23;89.70
42601;BME280;28229;48.856;9.088;2024-01-25T03:38:31;99110.25;;;8.21;89.60
42601;BME280;28229;48.856;9.088;2024-01-25T03:40:57;99123.53;;;8.19;89.83
42601;BME280;28229;48.856;9.088;2024-01-25T03:43:25;99126.31;;;8.18;89.97
42601;BME280;28229;48.856;9.088;2024-01-25T03:45:51;99124.38;;;8.20;89.45
42601;BME280;28229;48.856;9.088;2024-01-25T03:48:17;99121.38;;;8.23;89.67
42601;BME280;28229;48.856;9.088;2024-01-25T03:50:44;99134.25;;;8.10;90.02
42601;BME280;28229;48.856;9.088;2024-01-25T03:53:10;99136.53;;;8.13;89.78
42601;BME280;28229;48.856;9.088;2024-01-25T03:55:36;99143.41;;;8.14;89.22
42601;BME280;28229;48.856;9.088;2024-01-25T03:58:02;99135.88;;;8.11;89.37
42601;BME280;28229;48.856;9.088;2024-01-25T04:00:28;99136.56;;;8.05;89.68
42601;BME280;28229;48.856;9.088;2024-01-25T04:02:55;99145.25;;;8.05;89.55
42601;BME280;28229;48.856;9.088;2024-01-25T04:05:21;99163.72;;;8.12;89.65
42601;BME280;28229;48.856;9.088;2024-01-25T04:07:47;99170.31;;;8.08;89.71
42601;BME280;28229;48.856;9.088;2024-01-25T04:10:13;99161.50;;;8.00;89.38
42601;BME280;28229;48.856;9.088;2024-01-25T04:12:39;99167.22;;;8.04;89.32
42601;BME280;28229;48.856;9.088;2024-01-25T04:15:06;99171.97;;;8.00;89.49
42601;BME280;28229;48.856;9.088;2024-01-25T04:17:32;99168.19;;;7.95;89.83
42601;BME280;28229;48.856;9.088;2024-01-25T04:19:58;99164.59;;;7.96;89.60
42601;BME280;28229;48.856;9.088;2024-01-25T04:22:24;99171.31;;;7.98;89.13
42601;BME280;28229;48.856;9.088;2024-01-25T04:24:50;99173.44;;;7.95;89.24
42601;BME280;28229;48.856;9.088;2024-01-25T04:27:19;99173.59;;;8.01;88.80
42601;BME280;28229;48.856;9.088;2024-01-25T04:29:45;99175.25;;;8.03;88.72
42601;BME280;28229;48.856;9.088;2024-01-25T04:32:12;99162.78;;;7.96;88.40
42601;BME280;28229;48.856;9.088;2024-01-25T04:34:38;99181.63;;;8.00;88.35
42601;BME280;28229;48.856;9.088;2024-01-25T04:37:04;99175.91;;;7.96;88.54
42601;BME280;28229;48.856;9.088;2024-01-25T04:39:30;99182.16;;;7.95;88.61
42601;BME280;28229;48.856;9.088;2024-01-25T04:41:57;99185.09;;;7.92;88.45
42601;BME280;28229;48.856;9.088;2024-01-25T04:44:23;99169.69;;;7.89;88.90
42601;BME280;28229;48.856;9.088;2024-01-25T04:46:49;99185.78;;;7.86;88.68
42601;BME280;28229;48.856;9.088;2024-01-25T04:49:15;99177.25;;;7.84;88.37
42601;BME280;28229;48.856;9.088;2024-01-25T04:51:42;99179.53;;;7.87;88.59
42601;BME280;28229;48.856;9.088;2024-01-25T04:54:08;99182.16;;;7.87;88.38
42601;BME280;28229;48.856;9.088;2024-01-25T04:56:38;99175.31;;;7.78;88.13
42601;BME280;28229;48.856;9.088;2024-01-25T04:59:04;99184.16;;;7.77;87.63
42601;BME280;28229;48.856;9.088;2024-01-25T05:01:31;99183.19;;;7.78;87.47
42601;BME280;28229;48.856;9.088;2024-01-25T05:03:57;99188.44;;;7.70;87.54
42601;BME280;28229;48.856;9.088;2024-01-25T05:06:23;99202.16;;;7.72;86.76
42601;BME280;28229;48.856;9.088;2024-01-25T05:08:49;99182.75;;;7.58;87.30
42601;BME280;28229;48.856;9.088;2024-01-25T05:11:15;99194.03;;;7.58;87.33
42601;BME280;28229;48.856;9.088;2024-01-25T05:13:41;99190.75;;;7.56;87.43
42601;BME280;28229;48.856;9.088;2024-01-25T05:16:08;99190.75;;;7.56;87.22
42601;BME280;28229;48.856;9.088;2024-01-25T05:18:34;99184.56;;;7.49;87.64
42601;BME280;28229;48.856;9.088;2024-01-25T05:21:00;99191.94;;;7.46;87.79
42601;BME280;28229;48.856;9.088;2024-01-25T05:23:26;99192.41;;;7.41;87.84
42601;BME280;28229;48.856;9.088;2024-01-25T05:25:52;99190.31;;;7.36;87.65
42601;BME280;28229;48.856;9.088;2024-01-25T05:28:19;99190.94;;;7.30;87.39
42601;BME280;28229;48.856;9.088;2024-01-25T05:30:45;99191.78;;;7.14;87.86
42601;BME280;28229;48.856;9.088;2024-01-25T05:33:11;99196.84;;;7.16;87.63
42601;BME280;28229;48.856;9.088;2024-01-25T05:35:37;99193.09;;;7.10;87.41
42601;BME280;28229;48.856;9.088;2024-01-25T05:38:03;99194.91;;;7.10;87.49
42601;BME280;28229;48.856;9.088;2024-01-25T05:40:30;99195.22;;;7.07;87.53
42601;BME280;28229;48.856;9.088;2024-01-25T05:42:56;99201.56;;;7.04;87.33
42601;BME280;28229;48.856;9.088;2024-01-25T05:45:22;99200.59;;;6.97;87.75
42601;BME280;28229;48.856;9.088;2024-01-25T05:47:49;99202.41;;;6.96;87.79
42601;BME280;28229;48.856;9.088;2024-01-25T05:50:15;99201.25;;;6.91;87.83
42601;BME280;28229;48.856;9.088;2024-01-25T05:52:41;99205.84;;;6.89;87.54
42601;BME280;28229;48.856;9.088;2024-01-25T05:55:07;99207.97;;;6.85;87.83
42601;BME280;28229;48.856;9.088;2024-01-25T05:57:35;99205.84;;;6.89;87.62
42601;BME280;28229;48.856;9.088;2024-01-25T06:00:03;99201.56;;;6.88;87.53
42601;BME280;28229;48.856;9.088;2024-01-25T06:02:34;99216.78;;;6.84;87.75
42601;BME280;28229;48.856;9.088;2024-01-25T06:05:00;99209.56;;;6.86;87.66
42601;BME280;28229;48.856;9.088;2024-01-25T06:07:27;99203.19;;;6.80;88.17
42601;BME280;28229;48.856;9.088;2024-01-25T06:09:54;99212.69;;;6.81;89.19
42601;BME280;28229;48.856;9.088;2024-01-25T06:12:20;99214.16;;;6.76;89.59
42601;BME280;28229;48.856;9.088;2024-01-25T06:14:46;99225.44;;;6.76;90.45
42601;BME280;28229;48.856;9.088;2024-01-25T06:17:12;99225.09;;;6.71;91.51
42601;BME280;28229;48.856;9.088;2024-01-25T06:19:38;99223.09;;;6.57;92.94
42601;BME280;28229;48.856;9.088;2024-01-25T06:22:04;99220.97;;;6.60;93.08
42601;BME280;28229;48.856;9.088;2024-01-25T06:24:31;99217.88;;;6.57;93.43
42601;BME280;28229;48.856;9.088;2024-01-25T06:26:57;99226.88;;;6.54;94.55
42601;BME280;28229;48.856;9.088;2024-01-25T06:29:24;99240.41;;;6.50;94.76
42601;BME280;28229;48.856;9.088;2024-01-25T06:31:50;99228.28;;;6.48;95.39
42601;BME280;28229;48.856;9.088;2024-01-25T06:34:17;99221.75;;;6.44;95.88
42601;BME280;28229;48.856;9.088;2024-01-25T06:36:43;99218.50;;;6.42;96.87
42601;BME280;28229;48.856;9.088;2024-01-25T06:39:09;99214.81;;;6.27;97.97
42601;BME280;28229;48.856;9.088;2024-01-25T06:41:36;99219.25;;;6.26;98.84
42601;BME280;28229;48.856;9.088;2024-01-25T06:44:02;99222.66;;;6.27;98.68
42601;BME280;28229;48.856;9.088;2024-01-25T06:46:28;99226.13;;;6.27;99.05
42601;BME280;28229;48.856;9.088;2024-01-25T06:48:54;99231.56;;;6.42;100.00
42601;BME280;28229;48.856;9.088;2024-01-25T06:51:20;99239.44;;;6.51;100.00
42601;BME280;28229;48.856;9.088;2024-01-25T06:53:47;99256.25;;;6.48;100.00
42601;BME280;28229;48.856;9.088;2024-01-25T06:56:13;99257.03;;;6.40;99.24
42601;BME280;28229;48.856;9.088;2024-01-25T06:58:39;99251.47;;;6.35;99.05
42601;BME280;28229;48.856;9.088;2024-01-25T07:01:05;99256.03;;;6.33;98.64
42601;BME280;28229;48.856;9.088;2024-01-25T07:03:31;99257.34;;;6.37;98.17
42601;BME280;28229;48.856;9.088;2024-01-25T07:05:58;99262.22;;;6.24;98.46
42601;BME280;28229;48.856;9.088;2024-01-25T07:08:24;99262.88;;;6.26;98.25
42601;BME280;28229;48.856;9.088;2024-01-25T07:10:50;99263.78;;;6.17;98.81
42601;BME280;28229;48.856;9.088;2024-01-25T07:13:16;99258.03;;;6.13;98.51
42601;BME280;28229;48.856;9.088;2024-01-25T07:15:42;99257.22;;;6.13;99.12
42601;BME280;28229;48.856;9.088;2024-01-25T07:18:09;99254.63;;;6.13;99.15
42601;BME280;28229;48.856;9.088;2024-01-25T07:20:35;99262.97;;;6.16;99.04
42601;BME280;28229;48.856;9.088;2024-01-25T07:23:01;99258.84;;;6.05;99.01
42601;BME280;28229;48.856;9.088;2024-01-25T07:25:27;99263.75;;;6.08;99.12
42601;BME280;28229;48.856;9.088;2024-01-25T07:27:53;99262.72;;;6.01;99.20
42601;BME280;28229;48.856;9.088;2024-01-25T07:30:19;99266.66;;;6.05;99.32
42601;BME280;28229;48.856;9.088;2024-01-25T07:32:46;99268.31;;;6.06;99.62
42601;BME280;28229;48.856;9.088;2024-01-25T07:35:12;99268.31;;;6.06;99.51
42601;BME280;28229;48.856;9.088;2024-01-25T07:37:39;99275.22;;;6.16;99.03
42601;BME280;28229;48.856;9.088;2024-01-25T07:40:08;99270.47;;;6.45;100.00
42601;BME280;28229;48.856;9.088;2024-01-25T07:42:34;99277.06;;;6.66;100.00
42601;BME280;28229;48.856;9.088;2024-01-25T07:45:01;99276.09;;;6.75;100.00
42601;BME280;28229;48.856;9.088;2024-01-25T07:47:27;99281.16;;;6.77;100.00
42601;BME280;28229;48.856;9.088;2024-01-25T07:49:53;99274.84;;;6.96;100.00
42601;BME280;28229;48.856;9.088;2024-01-25T07:52:19;99280.44;;;7.17;99.29
42601;BME280;28229;48.856;9.088;2024-01-25T07:54:45;99279.94;;;7.14;96.34
42601;BME280;28229;48.856;9.088;2024-01-25T07:57:11;99288.59;;;7.06;94.71
42601;BME280;28229;48.856;9.088;2024-01-25T07:59:37;99287.28;;;7.02;94.95
42601;BME280;28229;48.856;9.088;2024-01-25T08:02:04;99282.31;;;6.82;95.30
42601;BME280;28229;48.856;9.088;2024-01-25T08:04:30;99267.91;;;6.70;96.39
42601;BME280;28229;48.856;9.088;2024-01-25T08:06:58;99260.41;;;6.67;96.44
42601;BME280;28229;48.856;9.088;2024-01-25T08:09:24;99263.00;;;6.67;96.56
42601;BME280;28229;48.856;9.088;2024-01-25T08:11:50;99261.38;;;6.66;96.48
42601;BME280;28229;48.856;9.088;2024-01-25T08:14:20;99266.97;;;6.79;96.31
42601;BME280;28229;48.856;9.088;2024-01-25T08:16:46;99272.19;;;6.79;96.43
42601;BME280;28229;48.856;9.088;2024-01-25T08:19:12;99271.53;;;6.85;95.91
42601;BME280;28229;48.856;9.088;2024-01-25T08:21:38;99270.09;;;6.91;95.54
42601;BME280;28229;48.856;9.088;2024-01-25T08:24:04;99276.31;;;6.98;94.78
42601;BME280;28229;48.856;9.088;2024-01-25T08:26:31;99266.22;;;7.12;98.13
42601;BME280;28229;48.856;9.088;2024-01-25T08:28:57;99258.53;;;7.35;96.79
42601;BME280;28229;48.856;9.088;2024-01-25T08:31:23;99263.91;;;7.50;93.56
42601;BME280;28229;48.856;9.088;2024-01-25T08:33:49;99258.50;;;7.68;93.99
42601;BME280;28229;48.856;9.088;2024-01-25T08:36:18;99253.25;;;7.76;92.26
42601;BME280;28229;48.856;9.088;2024-01-25T08:38:45;99271.91;;;7.81;90.79
42601;BME280;28229;48.856;9.088;2024-01-25T08:41:12;99259.16;;;7.86;89.34
42601;BME280;28229;48.856;9.088;2024-01-25T08:43:40;99276.16;;;7.90;88.87
42601;BME280;28229;48.856;9.088;2024-01-25T08:46:06;99282.38;;;7.97;90.22
42601;BME280;28229;48.856;9.088;2024-01-25T08:48:33;99291.16;;;8.21;89.99
42601;BME280;28229;48.856;9.088;2024-01-25T08:50:59;99295.38;;;8.30;87.36
42601;BME280;28229;48.856;9.088;2024-01-25T08:53:25;99297.63;;;8.50;87.81
42601;BME280;28229;48.856;9.088;2024-01-25T08:55:54;99302.53;;;8.53;85.95
42601;BME280;28229;48.856;9.088;2024-01-25T08:58:21;99301.84;;;8.59;86.61
42601;BME280;28229;48.856;9.088;2024-01-25T09:00:48;99303.78;;;8.73;84.85
42601;BME280;28229;48.856;9.088;2024-01-25T09:03:15;99304.06;;;8.79;84.07
42601;BME280;28229;48.856;9.088;2024-01-25T09:05:41;99308.31;;;8.88;83.20
42601;BME280;28229;48.856;9.088;2024-01-25T09:08:14;99315.81;;;8.91;82.67
42601;BME280;28229;48.856;9.088;2024-01-25T09:10:41;99319.03;;;9.01;82.75
42601;BME280;28229;48.856;9.088;2024-01-25T09:13:08;99322.75;;;9.15;82.25
42601;BME280;28229;48.856;9.088;2024-01-25T09:15:34;99315.38;;;9.10;81.87
42601;BME280;28229;48.856;9.088;2024-01-25T09:18:00;99325.94;;;9.02;81.25
42601;BME280;28229;48.856;9.088;2024-01-25T09:20:27;99319.94;;;9.17;81.21
42601;BME280;28229;48.856;9.088;2024-01-25T09:22:53;99320.16;;;9.30;80.42
42601;BME280;28229;48.856;9.088;2024-01-25T09:25:22;99323.44;;;9.32;80.30
42601;BME280;28229;48.856;9.088;2024-01-25T09:27:49;99324.16;;;9.49;80.08
42601;BME280;28229;48.856;9.088;2024-01-25T09:30:15;99321.69;;;9.47;78.45
42601;BME280;28229;48.856;9.088;2024-01-25T09:32:41;99327.88;;;9.55;78.73
42601;BME280;28229;48.856;9.088;2024-01-25T09:35:08;99330.81;;;9.60;78.73
42601;BME280;28229;48.856;9.088;2024-01-25T09:37:34;99331.44;;;9.62;78.33
42601;BME280;28229;48.856;9.088;2024-01-25T09:40:00;99332.44;;;9.61;79.69
42601;BME280;28229;48.856;9.088;2024-01-25T09:42:26;99332.94;;;9.79;79.18
42601;BME280;28229;48.856;9.088;2024-01-25T09:44:54;99332.03;;;9.87;77.58
42601;BME280;28229;48.856;9.088;2024-01-25T09:47:20;99331.13;;;9.80;76.72
42601;BME280;28229;48.856;9.088;2024-01-25T09:49:47;99342.88;;;9.69;76.03
42601;BME280;28229;48.856;9.088;2024-01-25T09:52:14;99350.28;;;9.65;75.98
42601;BME280;28229;48.856;9.088;2024-01-25T09:54:42;99346.44;;;9.76;76.28
42601;BME280;28229;48.856;9.088;2024-01-25T09:57:14;99354.66;;;9.73;75.83
42601;BME280;28229;48.856;9.088;2024-01-25T09:59:44;99341.13;;;9.84;76.63
42601;BME280;28229;48.856;9.088;2024-01-25T10:02:11;99347.03;;;10.01;76.46
42601;BME280;28229;48.856;9.088;2024-01-25T10:04:37;99348.13;;;10.07;76.54
42601;BME280;28229;48.856;9.088;2024-01-25T10:07:04;99351.41;;;10.09;75.54
42601;BME280;28229;48.856;9.088;2024-01-25T10:09:42;99357.59;;;10.16;76.42
42601;BME280;28229;48.856;9.088;2024-01-25T10:12:09;99350.22;;;10.12;75.24
42601;BME280;28229;48.856;9.088;2024-01-25T10:14:35;99354.69;;;10.11;74.28
42601;BME280;28229;48.856;9.088;2024-01-25T10:17:01;99349.66;;;10.01;74.13
42601;BME280;28229;48.856;9.088;2024-01-25T10:19:28;99350.41;;;10.10;76.23
42601;BME280;28229;48.856;9.088;2024-01-25T10:21:56;99349.66;;;10.01;74.69
42601;BME280;28229;48.856;9.088;2024-01-25T10:24:22;99348.78;;;10.09;74.73
42601;BME280;28229;48.856;9.088;2024-01-25T10:26:49;99338.78;;;9.89;74.79
42601;BME280;28229;48.856;9.088;2024-01-25T10:29:15;99338.19;;;9.79;74.52
42601;BME280;28229;48.856;9.088;2024-01-25T10:31:42;99339.91;;;9.72;73.92
42601;BME280;28229;48.856;9.088;2024-01-25T10:34:11;99334.88;;;9.62;74.51
42601;BME280;28229;48.856;9.088;2024-01-25T10:36:39;99333.00;;;9.71;74.41
42601;BME280;28229;48.856;9.088;2024-01-25T10:39:06;99325.47;;;9.91;74.28
42601;BME280;28229;48.856;9.088;2024-01-25T10:41:34;99328.56;;;10.09;73.57
42601;BME280;28229;48.856;9.088;2024-01-25T10:44:01;99324.03;;;10.48;72.70
42601;BME280;28229;48.856;9.088;2024-01-25T10:46:29;99333.44;;;10.87;70.91
42601;BME280;28229;48.856;9.088;2024-01-25T10:48:58;99329.50;;;11.13;70.46
42601;BME280;28229;48.856;9.088;2024-01-25T10:51:28;99324.75;;;11.45;68.06
42601;BME280;28229;48.856;9.088;2024-01-25T10:53:55;99327.25;;;11.53;67.75
42601;BME280;28229;48.856;9.088;2024-01-25T10:56:21;99322.59;;;11.76;67.07
42601;BME280;28229;48.856;9.088;2024-01-25T10:58:48;99313.03;;;11.97;65.26
42601;BME280;28229;48.856;9.088;2024-01-25T11:01:16;99311.66;;;12.36;66.61
42601;BME280;28229;48.856;9.088;2024-01-25T11:03:46;99306.13;;;12.66;63.22
42601;BME280;28229;48.856;9.088;2024-01-25T11:06:14;99299.44;;;12.70;60.99
42601;BME280;28229;48.856;9.088;2024-01-25T11:08:40;99293.63;;;12.94;61.33
42601;BME280;28229;48.856;9.088;2024-01-25T11:11:08;99305.25;;;13.07;59.19
42601;BME280;28229;48.856;9.088;2024-01-25T11:13:43;99285.34;;;13.24;60.17
42601;BME280;28229;48.856;9.088;2024-01-25T11:16:15;99291.31;;;13.53;61.07
42601;BME280;28229;48.856;9.088;2024-01-25T11:18:55;99286.44;;;13.50;60.47
42601;BME280;28229;48.856;9.088;2024-01-25T11:21:26;99277.88;;;13.48;61.55
42601;BME280;28229;48.856;9.088;2024-01-25T11:24:01;99283.97;;;13.42;61.75
42601;BME280;28229;48.856;9.088;2024-01-25T11:26:28;99277.41;;;13.11;62.63
42601;BME280;28229;48.856;9.088;2024-01-25T11:28:55;99276.22;;;13.27;62.60
42601;BME280;28229;48.856;9.088;2024-01-25T11:31:22;99274.97;;;13.29;62.58
42601;BME280;28229;48.856;9.088;2024-01-25T11:33:50;99250.63;;;13.54;62.30
42601;BME280;28229;48.856;9.088;2024-01-25T11:36:20;99250.59;;;13.81;61.29
42601;BME280;28229;48.856;9.088;2024-01-25T11:38:46;99249.00;;;13.80;60.89
42601;BME280;28229;48.856;9.088;2024-01-25T11:41:13;99243.28;;;13.83;58.66
42601;BME280;28229;48.856;9.088;2024-01-25T11:43:40;99246.31;;;14.06;59.66
42601;BME280;28229;48.856;9.088;2024-01-25T11:46:06;99247.84;;;14.34;58.18
42601;BME280;28229;48.856;9.088;2024-01-25T11:48:33;99251.69;;;14.38;58.48
42601;BME280;28229;48.856;9.088;2024-01-25T11:51:02;99252.13;;;14.35;58.58
42601;BME280;28229;48.856;9.088;2024-01-25T11:53:28;99248.81;;;14.40;57.98
42601;BME280;28229;48.856;9.088;2024-01-25T11:55:55;99248.56;;;14.55;56.29
42601;BME280;28229;48.856;9.088;2024-01-25T11:58:22;99250.00;;;14.51;54.83
42601;BME280;28229;48.856;9.088;2024-01-25T12:00:52;99243.56;;;14.33;54.53
42601;BME280;28229;48.856;9.088;2024-01-25T12:03:18;99241.13;;;14.32;54.72
42601;BME280;28229;48.856;9.088;2024-01-25T12:05:45;99243.78;;;14.25;56.47
42601;BME280;28229;48.856;9.088;2024-01-25T12:08:13;99249.41;;;13.83;57.11
42601;BME280;28229;48.856;9.088;2024-01-25T12:10:39;99239.03;;;13.68;57.42
42601;BME280;28229;48.856;9.088;2024-01-25T12:13:09;99239.66;;;13.57;56.69
42601;BME280;28229;48.856;9.088;2024-01-25T12:15:37;99235.78;;;13.53;57.64
42601;BME280;28229;48.856;9.088;2024-01-25T12:18:05;99237.22;;;13.69;56.15
42601;BME280;28229;48.856;9.088;2024-01-25T12:20:31;99245.16;;;13.69;57.12
42601;BME280;28229;48.856;9.088;2024-01-25T12:22:58;99235.53;;;13.81;56.42
42601;BME280;28229;48.856;9.088;2024-01-25T12:25:24;99225.94;;;14.00;56.21
42601;BME280;28229;48.856;9.088;2024-01-25T12:27:50;99228.19;;;13.90;55.30
42601;BME280;28229;48.856;9.088;2024-01-25T12:30:16;99213.63;;;13.67;55.84
42601;BME280;28229;48.856;9.088;2024-01-25T12:32:43;99215.66;;;13.65;56.61
42601;BME280;28229;48.856;9.088;2024-01-25T12:35:09;99212.56;;;13.68;57.06
42601;BME280;28229;48.856;9.088;2024-01-25T12:37:35;99220.09;;;13.78;56.56
42601;BME280;28229;48.856;9.088;2024-01-25T12:40:02;99213.50;;;14.07;57.21
42601;BME280;28229;48.856;9.088;2024-01-25T12:42:28;99220.75;;;14.32;54.68
42601;BME280;28229;48.856;9.088;2024-01-25T12:44:54;99217.25;;;14.38;53.60
42601;BME280;28229;48.856;9.088;2024-01-25T12:47:20;99212.72;;;14.59;54.49
42601;BME280;28229;48.856;9.088;2024-01-25T12:49:47;99202.41;;;14.82;54.23
42601;BME280;28229;48.856;9.088;2024-01-25T12:52:14;99199.50;;;14.91;52.56
42601;BME280;28229;48.856;9.088;2024-01-25T12:54:41;99197.09;;;14.82;52.34
42601;BME280;28229;48.856;9.088;2024-01-25T12:57:08;99191.91;;;15.01;52.31
42601;BME280;28229;48.856;9.088;2024-01-25T12:59:35;99190.94;;;15.20;51.69
42601;BME280;28229;48.856;9.088;2024-01-25T13:02:02;99183.75;;;15.28;50.70
42601;BME280;28229;48.856;9.088;2024-01-25T13:04:29;99184.00;;;15.19;50.19